Details From FNLU - LUANDA 4 DE FEVEREIRO
To FNMO - NAMIBE
Flight Number -
Tags generated
Created
Modified
Stats Distance 391 nm / 724 km
Max Altitude 34,000 ft / 10,363 m
Waypoints 6
Social Downloads 2
Likes 0
Share

Download

Looking for another format? Having issues loading an existing format? Contact us
Advertisement - Login to hide

Notes

Basic altitude profile: - Ascent Rate: 2500ft/min - Ascent Speed: 250kts - Cruise Altitude: 35000ft - Cruise Speed: 420kts - Descent Rate: 1500ft/min - Descent Speed: 250kts Options: - Use NATs: yes - Use PACOTS: yes - Use low airways: yes - Use high airways: yes

Route

FNLU UDANO W874F ETBON UW874F OKTAG W874F VMO FNMO

ID Type Via Altitude (ft/m) Position (lat/lon) Dist (leg/tot) Name
O FNLU APT - 0 / 0 -8.85838 / 13.23118 - / 0 nm LUANDA 4 DE FEVEREIRO
UDANO FIX - 26,900 / 8,199 -10.14833 / 13.03167 78 / 78 nm
ETBON FIX W874F (AWY-LO) 24,500 / 7,468 -10.80000 / 12.92500 39 / 118 nm
OKTAG FIX UW874F (AWY-HI) 34,000 / 10,363 -12.48167 / 12.64333 102 / 220 nm
VMO VOR W874F (AWY-LO) 4,000 / 1,219 -15.26667 / 12.16667 169 / 389 nm NAMIBE VOR-DME
O FNMO APT - 0 / 0 -15.26122 / 12.14675 1 / 391 nm NAMIBE

Altitude Profile

Advertisement - Login to hide

Weather


0- 5 10 15 20 25 30 35+ Temperature / °C

Clouds and Precipitation
Forecast for 2021-03-22 12:00 UTC. Updated 2 months ago

Ground ~20,000 ft ~40,000 ft Winds

FNLU

Details ICAO FNLU (LAD)
Name Luanda-Quatro de Fevereiro
Region Angola
Timezone Africa/Luanda (UTC+1.0)
Stats Elevation 238 ft / 73 m (AMSL)
Location -8.858340° 13.231100°
Runways 2
Magnetic Variation 2.898° W

METAR

FNLU 131500Z 25009KT 9999 FEW020 29/23 Q1007

Decode

TAF

TAF FNLU 131100Z 1312/1418 25006KT 9000 SCT020 BECMG 1316/1318 8000 -DZ BKN020 TEMPO 1419/1424 CAVOK TEMPO 1401/1405 VRB02KT FEW020

Decode

Departure Runways

ID Width Length Bearing (true/mag) Surface Threshold Overrun Markings Lighting
05 148 ft / 45 m 12,151 ft / 3,704 m 46.59° / 49.49° ASPHALT 0 ft / 0 m 0 ft / 0 m PREC-APP CENTERLINE EDGE THRESHOLD ALSF-I
07 148 ft / 45 m 8,210 ft / 2,502 m 67.54° / 70.44° ASPHALT 0 ft / 0 m 0 ft / 0 m PREC-APP EDGE THRESHOLD
23 148 ft / 45 m 12,151 ft / 3,704 m 226.59° / 229.48° ASPHALT 492 ft / 150 m 0 ft / 0 m PREC-APP CENTERLINE EDGE THRESHOLD CALVERT
25 148 ft / 45 m 8,210 ft / 2,502 m 247.54° / 250.43° ASPHALT 0 ft / 0 m 0 ft / 0 m PREC-APP EDGE THRESHOLD

FNMO

Details ICAO FNMO (MSZ)
Name Welwitschia Mirabilis Intl
Region Angola
Timezone Africa/Luanda (UTC+1.0)
Stats Elevation 230 ft / 70 m (AMSL)
Location -15.261400° 12.146600°
Runways 1
Magnetic Variation 6.540° W

METAR

FNMO 131500Z 31010KT 9999 FEW024CB FEW027 30/24 Q1010

Decode

TAF

TAF FNMO 131100Z 1312/1324 VRB03KT CAVOK= TAF FNGI 131100Z 1312/1324 07011KT CAVOK

Decode

Destination Runways

ID Width Length Bearing (true/mag) Surface Threshold Overrun Markings Lighting
08 148 ft / 45 m 8,204 ft / 2,501 m 66.40° / 72.94° ASPHALT 0 ft / 0 m 197 ft / 60 m PREC-APP CENTERLINE EDGE THRESHOLD MALSF REIL-OMNI
26 148 ft / 45 m 8,204 ft / 2,501 m 246.40° / 252.94° ASPHALT 0 ft / 0 m 197 ft / 60 m PREC-APP CENTERLINE EDGE THRESHOLD MALSF REIL-OMNI

Popular Alternatives